sensor_id;sensor_type;location;lat;lon;timestamp;temperature;humidity
19017;DHT22;9641;51.494;6.670;2024-03-08T00:01:37;4.10;1.00
19017;DHT22;9641;51.494;6.670;2024-03-08T00:04:04;4.00;1.00
19017;DHT22;9641;51.494;6.670;2024-03-08T00:06:33;3.90;1.00
19017;DHT22;9641;51.494;6.670;2024-03-08T00:09:00;3.90;1.00
19017;DHT22;9641;51.494;6.670;2024-03-08T00:11:27;3.80;1.00
19017;DHT22;9641;51.494;6.670;2024-03-08T00:13:54;3.80;1.00
19017;DHT22;9641;51.494;6.670;2024-03-08T00:16:21;3.70;1.00
19017;DHT22;9641;51.494;6.670;2024-03-08T00:18:48;3.70;1.00
19017;DHT22;9641;51.494;6.670;2024-03-08T00:21:16;3.80;1.00
19017;DHT22;9641;51.494;6.670;2024-03-08T00:23:44;3.80;1.00
19017;DHT22;9641;51.494;6.670;2024-03-08T00:26:12;3.80;1.00
19017;DHT22;9641;51.494;6.670;2024-03-08T00:28:39;3.90;1.00
19017;DHT22;9641;51.494;6.670;2024-03-08T00:31:07;3.90;1.00
19017;DHT22;9641;51.494;6.670;2024-03-08T00:33:34;3.90;1.00
19017;DHT22;9641;51.494;6.670;2024-03-08T00:36:01;3.80;1.00
19017;DHT22;9641;51.494;6.670;2024-03-08T00:38:28;3.70;1.00
19017;DHT22;9641;51.494;6.670;2024-03-08T00:40:56;3.60;1.00
19017;DHT22;9641;51.494;6.670;2024-03-08T00:43:23;3.50;1.00
19017;DHT22;9641;51.494;6.670;2024-03-08T00:45:50;3.50;1.00
19017;DHT22;9641;51.494;6.670;2024-03-08T00:48:17;3.50;1.00
19017;DHT22;9641;51.494;6.670;2024-03-08T00:50:44;3.50;1.00
19017;DHT22;9641;51.494;6.670;2024-03-08T00:53:11;3.50;1.00
19017;DHT22;9641;51.494;6.670;2024-03-08T00:55:38;3.40;1.00
19017;DHT22;9641;51.494;6.670;2024-03-08T00:58:06;3.40;1.00
19017;DHT22;9641;51.494;6.670;2024-03-08T01:00:34;3.40;1.00
19017;DHT22;9641;51.494;6.670;2024-03-08T01:03:01;3.30;1.00
19017;DHT22;9641;51.494;6.670;2024-03-08T01:05:29;3.30;1.00
19017;DHT22;9641;51.494;6.670;2024-03-08T01:07:56;3.40;1.00
19017;DHT22;9641;51.494;6.670;2024-03-08T01:10:23;3.40;1.00
19017;DHT22;9641;51.494;6.670;2024-03-08T01:12:50;3.40;1.00
19017;DHT22;9641;51.494;6.670;2024-03-08T01:15:18;3.40;1.00
19017;DHT22;9641;51.494;6.670;2024-03-08T01:17:45;3.40;1.00
19017;DHT22;9641;51.494;6.670;2024-03-08T01:20:12;3.40;1.00
19017;DHT22;9641;51.494;6.670;2024-03-08T01:22:40;3.30;1.00
19017;DHT22;9641;51.494;6.670;2024-03-08T01:25:08;3.30;1.00
19017;DHT22;9641;51.494;6.670;2024-03-08T01:27:35;3.20;1.00
19017;DHT22;9641;51.494;6.670;2024-03-08T01:30:03;3.10;1.00
19017;DHT22;9641;51.494;6.670;2024-03-08T01:32:32;3.20;1.00
19017;DHT22;9641;51.494;6.670;2024-03-08T01:34:59;3.20;1.00
19017;DHT22;9641;51.494;6.670;2024-03-08T01:37:26;3.10;1.00
19017;DHT22;9641;51.494;6.670;2024-03-08T01:39:55;3.10;1.00
19017;DHT22;9641;51.494;6.670;2024-03-08T01:42:22;3.10;1.00
19017;DHT22;9641;51.494;6.670;2024-03-08T01:44:49;3.00;1.00
19017;DHT22;9641;51.494;6.670;2024-03-08T01:47:17;3.00;1.00
19017;DHT22;9641;51.494;6.670;2024-03-08T01:49:47;3.00;1.00
19017;DHT22;9641;51.494;6.670;2024-03-08T01:52:14;2.90;1.00
19017;DHT22;9641;51.494;6.670;2024-03-08T01:54:41;2.90;1.00
19017;DHT22;9641;51.494;6.670;2024-03-08T01:57:09;2.90;1.00
19017;DHT22;9641;51.494;6.670;2024-03-08T01:59:37;2.90;1.00
19017;DHT22;9641;51.494;6.670;2024-03-08T02:02:05;2.90;1.00
19017;DHT22;9641;51.494;6.670;2024-03-08T02:04:34;2.90;1.00
19017;DHT22;9641;51.494;6.670;2024-03-08T02:07:06;2.90;1.00
19017;DHT22;9641;51.494;6.670;2024-03-08T02:09:33;2.90;1.00
19017;DHT22;9641;51.494;6.670;2024-03-08T02:12:00;2.90;1.00
19017;DHT22;9641;51.494;6.670;2024-03-08T02:14:33;2.90;1.00
19017;DHT22;9641;51.494;6.670;2024-03-08T02:17:06;2.90;1.00
19017;DHT22;9641;51.494;6.670;2024-03-08T02:19:33;2.90;1.00
19017;DHT22;9641;51.494;6.670;2024-03-08T02:22:03;2.80;1.00
19017;DHT22;9641;51.494;6.670;2024-03-08T02:24:31;2.80;1.00
19017;DHT22;9641;51.494;6.670;2024-03-08T02:26:59;2.80;1.00
19017;DHT22;9641;51.494;6.670;2024-03-08T02:29:26;2.70;5.30
19017;DHT22;9641;51.494;6.670;2024-03-08T02:31:53;2.70;3.10
19017;DHT22;9641;51.494;6.670;2024-03-08T02:34:21;2.70;1.00
19017;DHT22;9641;51.494;6.670;2024-03-08T02:36:48;2.70;1.00
19017;DHT22;9641;51.494;6.670;2024-03-08T02:39:17;2.70;1.00
19017;DHT22;9641;51.494;6.670;2024-03-08T02:41:45;2.60;21.80
19017;DHT22;9641;51.494;6.670;2024-03-08T02:44:16;2.60;13.10
19017;DHT22;9641;51.494;6.670;2024-03-08T02:46:43;2.60;14.00
19017;DHT22;9641;51.494;6.670;2024-03-08T02:49:10;2.60;1.00
19017;DHT22;9641;51.494;6.670;2024-03-08T02:51:37;2.50;13.60
19017;DHT22;9641;51.494;6.670;2024-03-08T02:54:06;2.50;42.70
19017;DHT22;9641;51.494;6.670;2024-03-08T02:56:38;2.50;21.40
19017;DHT22;9641;51.494;6.670;2024-03-08T02:59:05;2.50;11.90
19017;DHT22;9641;51.494;6.670;2024-03-08T03:01:33;2.50;1.00
19017;DHT22;9641;51.494;6.670;2024-03-08T03:04:02;2.50;1.00
19017;DHT22;9641;51.494;6.670;2024-03-08T03:06:29;2.50;1.00
19017;DHT22;9641;51.494;6.670;2024-03-08T03:08:57;2.50;1.00
19017;DHT22;9641;51.494;6.670;2024-03-08T03:11:30;2.50;1.00
19017;DHT22;9641;51.494;6.670;2024-03-08T03:13:58;2.50;1.00
19017;DHT22;9641;51.494;6.670;2024-03-08T03:16:29;2.50;1.00
19017;DHT22;9641;51.494;6.670;2024-03-08T03:19:05;2.50;1.00
19017;DHT22;9641;51.494;6.670;2024-03-08T03:21:48;2.40;36.20
19017;DHT22;9641;51.494;6.670;2024-03-08T03:24:17;2.30;19.50
19017;DHT22;9641;51.494;6.670;2024-03-08T03:26:46;2.30;39.00
19017;DHT22;9641;51.494;6.670;2024-03-08T03:29:16;2.30;56.10
19017;DHT22;9641;51.494;6.670;2024-03-08T03:31:46;2.30;56.00
19017;DHT22;9641;51.494;6.670;2024-03-08T03:34:13;2.20;38.80
19017;DHT22;9641;51.494;6.670;2024-03-08T03:36:44;2.20;51.50
19017;DHT22;9641;51.494;6.670;2024-03-08T03:39:12;2.20;35.00
19017;DHT22;9641;51.494;6.670;2024-03-08T03:41:41;2.20;80.60
19017;DHT22;9641;51.494;6.670;2024-03-08T03:44:11;2.10;99.90
19017;DHT22;9641;51.494;6.670;2024-03-08T03:46:43;2.10;99.90
19017;DHT22;9641;51.494;6.670;2024-03-08T03:49:11;2.10;99.90
19017;DHT22;9641;51.494;6.670;2024-03-08T03:51:38;2.10;99.90
19017;DHT22;9641;51.494;6.670;2024-03-08T03:54:06;2.10;99.90
19017;DHT22;9641;51.494;6.670;2024-03-08T03:56:33;2.00;99.90
19017;DHT22;9641;51.494;6.670;2024-03-08T03:59:01;2.00;99.90
19017;DHT22;9641;51.494;6.670;2024-03-08T04:01:28;2.00;99.90
19017;DHT22;9641;51.494;6.670;2024-03-08T04:03:57;2.00;99.90
19017;DHT22;9641;51.494;6.670;2024-03-08T04:06:27;2.10;97.90
19017;DHT22;9641;51.494;6.670;2024-03-08T04:08:54;2.10;97.60
19017;DHT22;9641;51.494;6.670;2024-03-08T04:11:21;2.10;93.30
19017;DHT22;9641;51.494;6.670;2024-03-08T04:13:51;2.00;99.90
19017;DHT22;9641;51.494;6.670;2024-03-08T04:16:19;2.00;99.90
19017;DHT22;9641;51.494;6.670;2024-03-08T04:18:47;1.90;99.90
19017;DHT22;9641;51.494;6.670;2024-03-08T04:21:15;1.80;99.90
19017;DHT22;9641;51.494;6.670;2024-03-08T04:23:42;1.70;99.90
19017;DHT22;9641;51.494;6.670;2024-03-08T04:26:10;1.70;99.90
19017;DHT22;9641;51.494;6.670;2024-03-08T04:28:38;1.70;99.90
19017;DHT22;9641;51.494;6.670;2024-03-08T04:31:07;1.60;99.90
19017;DHT22;9641;51.494;6.670;2024-03-08T04:33:35;1.70;99.90
19017;DHT22;9641;51.494;6.670;2024-03-08T04:36:02;1.60;99.90
19017;DHT22;9641;51.494;6.670;2024-03-08T04:38:31;1.60;99.90
19017;DHT22;9641;51.494;6.670;2024-03-08T04:40:59;1.60;99.90
19017;DHT22;9641;51.494;6.670;2024-03-08T04:43:28;1.60;99.90
19017;DHT22;9641;51.494;6.670;2024-03-08T04:45:56;1.60;99.90
19017;DHT22;9641;51.494;6.670;2024-03-08T04:48:23;1.60;99.90
19017;DHT22;9641;51.494;6.670;2024-03-08T04:50:52;1.60;99.90
19017;DHT22;9641;51.494;6.670;2024-03-08T04:53:19;1.60;99.90
19017;DHT22;9641;51.494;6.670;2024-03-08T04:55:48;1.50;99.90
19017;DHT22;9641;51.494;6.670;2024-03-08T04:58:15;1.50;99.90
19017;DHT22;9641;51.494;6.670;2024-03-08T05:00:43;1.50;99.90
19017;DHT22;9641;51.494;6.670;2024-03-08T05:03:10;1.50;99.90
19017;DHT22;9641;51.494;6.670;2024-03-08T05:05:37;1.50;99.90
19017;DHT22;9641;51.494;6.670;2024-03-08T05:08:05;1.50;99.90
19017;DHT22;9641;51.494;6.670;2024-03-08T05:10:32;1.40;99.90
19017;DHT22;9641;51.494;6.670;2024-03-08T05:13:01;1.40;99.90
19017;DHT22;9641;51.494;6.670;2024-03-08T05:15:31;1.40;99.90
19017;DHT22;9641;51.494;6.670;2024-03-08T05:18:00;1.40;99.90
19017;DHT22;9641;51.494;6.670;2024-03-08T05:20:28;1.40;99.90
19017;DHT22;9641;51.494;6.670;2024-03-08T05:22:59;1.40;99.90
19017;DHT22;9641;51.494;6.670;2024-03-08T05:25:32;1.40;99.90
19017;DHT22;9641;51.494;6.670;2024-03-08T05:28:00;1.40;99.90
19017;DHT22;9641;51.494;6.670;2024-03-08T05:30:28;1.40;99.90
19017;DHT22;9641;51.494;6.670;2024-03-08T05:32:55;1.40;99.90
19017;DHT22;9641;51.494;6.670;2024-03-08T05:35:22;1.30;99.90
19017;DHT22;9641;51.494;6.670;2024-03-08T05:37:50;1.30;99.90
19017;DHT22;9641;51.494;6.670;2024-03-08T05:40:17;1.30;99.90
19017;DHT22;9641;51.494;6.670;2024-03-08T05:42:45;1.30;99.90
19017;DHT22;9641;51.494;6.670;2024-03-08T05:45:14;1.30;99.90
19017;DHT22;9641;51.494;6.670;2024-03-08T05:47:41;1.20;99.90
19017;DHT22;9641;51.494;6.670;2024-03-08T05:50:09;1.20;99.90
19017;DHT22;9641;51.494;6.670;2024-03-08T05:52:37;1.20;99.90
19017;DHT22;9641;51.494;6.670;2024-03-08T05:55:06;1.30;99.90
19017;DHT22;9641;51.494;6.670;2024-03-08T05:57:39;1.30;99.90
19017;DHT22;9641;51.494;6.670;2024-03-08T06:00:08;1.30;99.90
19017;DHT22;9641;51.494;6.670;2024-03-08T06:02:41;1.30;99.90
19017;DHT22;9641;51.494;6.670;2024-03-08T06:05:13;1.20;99.90
19017;DHT22;9641;51.494;6.670;2024-03-08T06:07:40;1.20;99.90
19017;DHT22;9641;51.494;6.670;2024-03-08T06:10:09;1.20;99.90
19017;DHT22;9641;51.494;6.670;2024-03-08T06:12:46;1.20;99.90
19017;DHT22;9641;51.494;6.670;2024-03-08T06:15:16;1.20;99.90
19017;DHT22;9641;51.494;6.670;2024-03-08T06:17:50;1.20;99.90
19017;DHT22;9641;51.494;6.670;2024-03-08T06:20:18;1.20;99.90
19017;DHT22;9641;51.494;6.670;2024-03-08T06:22:45;1.20;99.90
19017;DHT22;9641;51.494;6.670;2024-03-08T06:25:12;1.20;99.90
19017;DHT22;9641;51.494;6.670;2024-03-08T06:27:40;1.20;99.90
19017;DHT22;9641;51.494;6.670;2024-03-08T06:30:09;1.20;99.90
19017;DHT22;9641;51.494;6.670;2024-03-08T06:32:36;1.20;99.90
19017;DHT22;9641;51.494;6.670;2024-03-08T06:35:06;1.20;99.90
19017;DHT22;9641;51.494;6.670;2024-03-08T06:37:33;1.20;99.90
19017;DHT22;9641;51.494;6.670;2024-03-08T06:40:01;1.30;99.90
19017;DHT22;9641;51.494;6.670;2024-03-08T06:42:29;1.40;99.90
19017;DHT22;9641;51.494;6.670;2024-03-08T06:44:59;1.40;99.90
19017;DHT22;9641;51.494;6.670;2024-03-08T06:47:30;1.40;99.90
19017;DHT22;9641;51.494;6.670;2024-03-08T06:50:05;1.30;99.90
19017;DHT22;9641;51.494;6.670;2024-03-08T06:52:38;1.30;99.90
19017;DHT22;9641;51.494;6.670;2024-03-08T06:55:08;1.40;99.90
19017;DHT22;9641;51.494;6.670;2024-03-08T06:57:37;1.40;99.90
19017;DHT22;9641;51.494;6.670;2024-03-08T07:00:07;1.50;99.90
19017;DHT22;9641;51.494;6.670;2024-03-08T07:02:35;1.50;99.90
19017;DHT22;9641;51.494;6.670;2024-03-08T07:05:04;1.60;99.90
19017;DHT22;9641;51.494;6.670;2024-03-08T07:07:33;1.70;99.90
19017;DHT22;9641;51.494;6.670;2024-03-08T07:10:00;1.90;99.90
19017;DHT22;9641;51.494;6.670;2024-03-08T07:12:30;2.00;99.90
19017;DHT22;9641;51.494;6.670;2024-03-08T07:15:00;2.10;99.90
19017;DHT22;9641;51.494;6.670;2024-03-08T07:17:32;2.30;99.90
19017;DHT22;9641;51.494;6.670;2024-03-08T07:20:06;2.40;99.90
19017;DHT22;9641;51.494;6.670;2024-03-08T07:22:39;2.50;99.90
19017;DHT22;9641;51.494;6.670;2024-03-08T07:25:07;2.60;99.90
19017;DHT22;9641;51.494;6.670;2024-03-08T07:27:47;2.60;99.90
19017;DHT22;9641;51.494;6.670;2024-03-08T07:30:15;2.70;99.90
19017;DHT22;9641;51.494;6.670;2024-03-08T07:33:04;2.70;99.90
19017;DHT22;9641;51.494;6.670;2024-03-08T07:35:30;2.90;99.90
19017;DHT22;9641;51.494;6.670;2024-03-08T07:38:00;2.90;99.90
19017;DHT22;9641;51.494;6.670;2024-03-08T07:40:30;3.00;99.90
19017;DHT22;9641;51.494;6.670;2024-03-08T07:42:58;3.10;76.50
19017;DHT22;9641;51.494;6.670;2024-03-08T07:45:26;3.20;88.00
19017;DHT22;9641;51.494;6.670;2024-03-08T07:47:53;3.20;74.20
19017;DHT22;9641;51.494;6.670;2024-03-08T07:50:25;3.30;85.80
19017;DHT22;9641;51.494;6.670;2024-03-08T07:52:52;3.30;75.50
19017;DHT22;9641;51.494;6.670;2024-03-08T07:55:22;3.40;38.20
19017;DHT22;9641;51.494;6.670;2024-03-08T07:57:49;3.50;19.70
19017;DHT22;9641;51.494;6.670;2024-03-08T08:00:17;3.60;18.70
19017;DHT22;9641;51.494;6.670;2024-03-08T08:02:44;3.60;26.80
19017;DHT22;9641;51.494;6.670;2024-03-08T08:05:15;3.70;13.00
19017;DHT22;9641;51.494;6.670;2024-03-08T08:07:44;3.80;1.00
19017;DHT22;9641;51.494;6.670;2024-03-08T08:10:12;3.90;1.00
19017;DHT22;9641;51.494;6.670;2024-03-08T08:12:45;3.90;1.00
19017;DHT22;9641;51.494;6.670;2024-03-08T08:15:13;4.10;1.00
19017;DHT22;9641;51.494;6.670;2024-03-08T08:17:41;4.20;1.00
19017;DHT22;9641;51.494;6.670;2024-03-08T08:20:09;4.20;1.00
19017;DHT22;9641;51.494;6.670;2024-03-08T08:22:37;4.30;1.00
19017;DHT22;9641;51.494;6.670;2024-03-08T08:25:06;4.40;1.00
19017;DHT22;9641;51.494;6.670;2024-03-08T08:27:33;4.40;1.00
19017;DHT22;9641;51.494;6.670;2024-03-08T08:30:04;4.50;1.00
19017;DHT22;9641;51.494;6.670;2024-03-08T08:32:34;4.60;1.00
19017;DHT22;9641;51.494;6.670;2024-03-08T08:35:01;4.60;1.00
19017;DHT22;9641;51.494;6.670;2024-03-08T08:37:30;4.70;1.00
19017;DHT22;9641;51.494;6.670;2024-03-08T08:39:57;4.80;1.00
19017;DHT22;9641;51.494;6.670;2024-03-08T08:42:31;4.80;1.00
19017;DHT22;9641;51.494;6.670;2024-03-08T08:45:08;4.90;1.00
19017;DHT22;9641;51.494;6.670;2024-03-08T08:47:35;5.00;1.00
19017;DHT22;9641;51.494;6.670;2024-03-08T08:50:03;5.10;1.00
19017;DHT22;9641;51.494;6.670;2024-03-08T08:52:31;5.20;1.00
19017;DHT22;9641;51.494;6.670;2024-03-08T08:54:58;5.30;1.00
19017;DHT22;9641;51.494;6.670;2024-03-08T08:57:25;5.40;1.00
19017;DHT22;9641;51.494;6.670;2024-03-08T08:59:53;5.50;1.00
19017;DHT22;9641;51.494;6.670;2024-03-08T09:02:25;5.60;99.90
19017;DHT22;9641;51.494;6.670;2024-03-08T09:04:52;5.70;99.90
19017;DHT22;9641;51.494;6.670;2024-03-08T09:07:19;5.80;23.20
19017;DHT22;9641;51.494;6.670;2024-03-08T09:09:47;5.90;1.00
19017;DHT22;9641;51.494;6.670;2024-03-08T09:12:14;5.90;1.00
19017;DHT22;9641;51.494;6.670;2024-03-08T09:14:41;6.10;1.00
19017;DHT22;9641;51.494;6.670;2024-03-08T09:17:08;6.20;1.00
19017;DHT22;9641;51.494;6.670;2024-03-08T09:19:37;6.30;1.00
19017;DHT22;9641;51.494;6.670;2024-03-08T09:22:05;6.30;1.00
19017;DHT22;9641;51.494;6.670;2024-03-08T09:24:32;6.50;99.90
19017;DHT22;9641;51.494;6.670;2024-03-08T09:26:59;6.60;1.00
19017;DHT22;9641;51.494;6.670;2024-03-08T09:29:27;6.70;1.00
19017;DHT22;9641;51.494;6.670;2024-03-08T09:31:58;6.70;1.00
19017;DHT22;9641;51.494;6.670;2024-03-08T09:34:25;6.90;22.30
19017;DHT22;9641;51.494;6.670;2024-03-08T09:36:53;6.90;99.90
19017;DHT22;9641;51.494;6.670;2024-03-08T09:39:26;7.00;1.00
19017;DHT22;9641;51.494;6.670;2024-03-08T09:41:56;7.10;1.00
19017;DHT22;9641;51.494;6.670;2024-03-08T09:44:23;7.10;1.00
19017;DHT22;9641;51.494;6.670;2024-03-08T09:46:51;7.10;67.10
19017;DHT22;9641;51.494;6.670;2024-03-08T09:49:24;7.20;99.90
19017;DHT22;9641;51.494;6.670;2024-03-08T09:51:53;7.30;49.80
19017;DHT22;9641;51.494;6.670;2024-03-08T09:54:21;7.40;1.00
19017;DHT22;9641;51.494;6.670;2024-03-08T09:56:51;7.30;99.90
19017;DHT22;9641;51.494;6.670;2024-03-08T09:59:23;7.30;1.00
19017;DHT22;9641;51.494;6.670;2024-03-08T10:02:16;7.40;1.00
19017;DHT22;9641;51.494;6.670;2024-03-08T10:04:44;7.60;1.00
19017;DHT22;9641;51.494;6.670;2024-03-08T10:07:20;7.50;1.00
19017;DHT22;9641;51.494;6.670;2024-03-08T10:09:49;7.40;1.00
19017;DHT22;9641;51.494;6.670;2024-03-08T10:12:19;7.70;1.00
19017;DHT22;9641;51.494;6.670;2024-03-08T10:14:50;7.80;99.90
19017;DHT22;9641;51.494;6.670;2024-03-08T10:17:22;7.90;99.90
19017;DHT22;9641;51.494;6.670;2024-03-08T10:19:51;8.00;1.00
19017;DHT22;9641;51.494;6.670;2024-03-08T10:22:20;8.10;1.00
19017;DHT22;9641;51.494;6.670;2024-03-08T10:24:47;8.10;1.00
19017;DHT22;9641;51.494;6.670;2024-03-08T10:27:19;8.30;1.00
19017;DHT22;9641;51.494;6.670;2024-03-08T10:29:47;8.40;1.00
19017;DHT22;9641;51.494;6.670;2024-03-08T10:32:16;8.50;99.90
19017;DHT22;9641;51.494;6.670;2024-03-08T10:34:43;8.60;85.00
19017;DHT22;9641;51.494;6.670;2024-03-08T10:37:15;8.70;1.00
19017;DHT22;9641;51.494;6.670;2024-03-08T10:39:50;8.80;1.00
19017;DHT22;9641;51.494;6.670;2024-03-08T10:42:20;8.70;1.00
19017;DHT22;9641;51.494;6.670;2024-03-08T10:44:58;8.80;1.00
19017;DHT22;9641;51.494;6.670;2024-03-08T10:47:37;8.90;1.00
19017;DHT22;9641;51.494;6.670;2024-03-08T10:50:10;9.00;1.00
19017;DHT22;9641;51.494;6.670;2024-03-08T10:52:54;9.00;1.00
19017;DHT22;9641;51.494;6.670;2024-03-08T10:55:37;9.20;1.00
19017;DHT22;9641;51.494;6.670;2024-03-08T10:58:09;10.30;1.00
19017;DHT22;9641;51.494;6.670;2024-03-08T11:00:38;12.20;99.90
19017;DHT22;9641;51.494;6.670;2024-03-08T11:03:07;13.70;99.90
19017;DHT22;9641;51.494;6.670;2024-03-08T11:05:57;14.70;1.00
19017;DHT22;9641;51.494;6.670;2024-03-08T11:08:33;15.50;1.00
19017;DHT22;9641;51.494;6.670;2024-03-08T11:11:05;15.60;1.00
19017;DHT22;9641;51.494;6.670;2024-03-08T11:13:57;15.60;1.00
19017;DHT22;9641;51.494;6.670;2024-03-08T11:16:44;15.70;1.00
19017;DHT22;9641;51.494;6.670;2024-03-08T11:19:26;16.00;1.00
19017;DHT22;9641;51.494;6.670;2024-03-08T11:22:21;15.80;1.00
19017;DHT22;9641;51.494;6.670;2024-03-08T11:24:59;15.60;1.00
19017;DHT22;9641;51.494;6.670;2024-03-08T11:28:06;15.80;1.00
19017;DHT22;9641;51.494;6.670;2024-03-08T11:30:44;15.90;1.00
19017;DHT22;9641;51.494;6.670;2024-03-08T11:33:18;15.70;1.00
19017;DHT22;9641;51.494;6.670;2024-03-08T11:35:49;15.60;1.00
19017;DHT22;9641;51.494;6.670;2024-03-08T11:38:16;15.50;1.00
19017;DHT22;9641;51.494;6.670;2024-03-08T11:40:47;16.00;1.00
19017;DHT22;9641;51.494;6.670;2024-03-08T11:43:17;16.90;1.00
19017;DHT22;9641;51.494;6.670;2024-03-08T11:45:45;18.00;1.00
19017;DHT22;9641;51.494;6.670;2024-03-08T11:48:13;18.00;1.00
19017;DHT22;9641;51.494;6.670;2024-03-08T11:50:40;17.50;99.90
19017;DHT22;9641;51.494;6.670;2024-03-08T11:53:19;17.00;99.90
19017;DHT22;9641;51.494;6.670;2024-03-08T11:55:55;17.50;99.90
19017;DHT22;9641;51.494;6.670;2024-03-08T11:58:33;17.70;99.90
19017;DHT22;9641;51.494;6.670;2024-03-08T12:01:06;17.50;99.90
19017;DHT22;9641;51.494;6.670;2024-03-08T12:03:52;16.40;99.90
19017;DHT22;9641;51.494;6.670;2024-03-08T12:06:36;16.80;99.90
19017;DHT22;9641;51.494;6.670;2024-03-08T12:09:11;17.60;99.90
19017;DHT22;9641;51.494;6.670;2024-03-08T12:11:42;17.20;99.90
19017;DHT22;9641;51.494;6.670;2024-03-08T12:14:20;17.70;99.90
19017;DHT22;9641;51.494;6.670;2024-03-08T12:16:50;17.90;99.90
19017;DHT22;9641;51.494;6.670;2024-03-08T12:19:29;18.60;99.90
19017;DHT22;9641;51.494;6.670;2024-03-08T12:22:15;19.40;99.90
19017;DHT22;9641;51.494;6.670;2024-03-08T12:25:03;19.20;99.90
19017;DHT22;9641;51.494;6.670;2024-03-08T12:27:41;17.50;99.90
19017;DHT22;9641;51.494;6.670;2024-03-08T12:30:23;16.90;99.90
19017;DHT22;9641;51.494;6.670;2024-03-08T12:32:57;16.70;99.90
19017;DHT22;9641;51.494;6.670;2024-03-08T12:35:26;17.40;99.90
19017;DHT22;9641;51.494;6.670;2024-03-08T12:37:57;18.40;99.90
19017;DHT22;9641;51.494;6.670;2024-03-08T12:40:32;18.80;99.90
19017;DHT22;9641;51.494;6.670;2024-03-08T12:43:01;19.40;99.90
19017;DHT22;9641;51.494;6.670;2024-03-08T12:45:30;19.90;99.90
19017;DHT22;9641;51.494;6.670;2024-03-08T12:47:58;19.00;99.90
19017;DHT22;9641;51.494;6.670;2024-03-08T12:50:29;19.30;99.90
19017;DHT22;9641;51.494;6.670;2024-03-08T12:52:57;20.50;99.90
19017;DHT22;9641;51.494;6.670;2024-03-08T12:55:24;21.20;99.90
19017;DHT22;9641;51.494;6.670;2024-03-08T12:57:52;21.30;99.90
19017;DHT22;9641;51.494;6.670;2024-03-08T13:00:20;21.50;99.90
19017;DHT22;9641;51.494;6.670;2024-03-08T13:02:53;21.70;99.90
19017;DHT22;9641;51.494;6.670;2024-03-08T13:05:21;21.50;99.90
19017;DHT22;9641;51.494;6.670;2024-03-08T13:07:52;21.00;99.90
19017;DHT22;9641;51.494;6.670;2024-03-08T13:10:39;21.60;99.90
19017;DHT22;9641;51.494;6.670;2024-03-08T13:13:08;21.90;99.90
19017;DHT22;9641;51.494;6.670;2024-03-08T13:15:37;21.50;99.90
19017;DHT22;9641;51.494;6.670;2024-03-08T13:18:06;21.60;99.90
19017;DHT22;9641;51.494;6.670;2024-03-08T13:20:37;22.50;99.90
19017;DHT22;9641;51.494;6.670;2024-03-08T13:23:04;21.90;99.90
19017;DHT22;9641;51.494;6.670;2024-03-08T13:25:32;22.10;99.90
19017;DHT22;9641;51.494;6.670;2024-03-08T13:28:01;22.80;99.90
19017;DHT22;9641;51.494;6.670;2024-03-08T13:30:28;22.40;99.90
19017;DHT22;9641;51.494;6.670;2024-03-08T13:32:56;21.20;99.90
19017;DHT22;9641;51.494;6.670;2024-03-08T13:35:25;21.50;99.90
19017;DHT22;9641;51.494;6.670;2024-03-08T13:37:53;21.30;99.90
19017;DHT22;9641;51.494;6.670;2024-03-08T13:40:21;21.80;99.90
19017;DHT22;9641;51.494;6.670;2024-03-08T13:42:48;22.40;99.90
19017;DHT22;9641;51.494;6.670;2024-03-08T13:45:16;22.70;99.90
19017;DHT22;9641;51.494;6.670;2024-03-08T13:47:49;21.20;99.90
19017;DHT22;9641;51.494;6.670;2024-03-08T13:50:17;21.60;99.90
19017;DHT22;9641;51.494;6.670;2024-03-08T13:52:49;22.00;99.90
19017;DHT22;9641;51.494;6.670;2024-03-08T13:55:20;22.70;99.90
19017;DHT22;9641;51.494;6.670;2024-03-08T13:57:48;22.70;99.90
19017;DHT22;9641;51.494;6.670;2024-03-08T14:00:17;23.70;99.90
19017;DHT22;9641;51.494;6.670;2024-03-08T14:02:54;23.70;99.90
19017;DHT22;9641;51.494;6.670;2024-03-08T14:05:21;23.60;99.90
19017;DHT22;9641;51.494;6.670;2024-03-08T14:07:50;24.20;99.90
19017;DHT22;9641;51.494;6.670;2024-03-08T14:10:20;23.40;99.90
19017;DHT22;9641;51.494;6.670;2024-03-08T14:12:48;22.40;99.90
19017;DHT22;9641;51.494;6.670;2024-03-08T14:15:16;22.10;99.90
19017;DHT22;9641;51.494;6.670;2024-03-08T14:17:43;22.90;99.90
19017;DHT22;9641;51.494;6.670;2024-03-08T14:20:11;23.50;99.90
19017;DHT22;9641;51.494;6.670;2024-03-08T14:22:39;24.30;99.90
19017;DHT22;9641;51.494;6.670;2024-03-08T14:25:13;25.70;99.90
19017;DHT22;9641;51.494;6.670;2024-03-08T14:27:43;24.70;99.90
19017;DHT22;9641;51.494;6.670;2024-03-08T14:30:11;23.80;99.90
19017;DHT22;9641;51.494;6.670;2024-03-08T14:32:54;22.20;99.90
19017;DHT22;9641;51.494;6.670;2024-03-08T14:35:21;22.20;99.90
19017;DHT22;9641;51.494;6.670;2024-03-08T14:37:49;22.40;99.90
19017;DHT22;9641;51.494;6.670;2024-03-08T14:40:17;23.20;99.90
19017;DHT22;9641;51.494;6.670;2024-03-08T14:42:48;22.60;99.90
19017;DHT22;9641;51.494;6.670;2024-03-08T14:45:16;22.40;99.90
19017;DHT22;9641;51.494;6.670;2024-03-08T14:47:45;22.70;99.90
19017;DHT22;9641;51.494;6.670;2024-03-08T14:50:16;24.20;99.90
19017;DHT22;9641;51.494;6.670;2024-03-08T14:52:43;24.80;99.90
19017;DHT22;9641;51.494;6.670;2024-03-08T14:55:10;24.70;99.90
19017;DHT22;9641;51.494;6.670;2024-03-08T14:57:42;23.10;99.90
19017;DHT22;9641;51.494;6.670;2024-03-08T15:00:12;22.10;99.90
19017;DHT22;9641;51.494;6.670;2024-03-08T15:02:43;22.70;99.90
19017;DHT22;9641;51.494;6.670;2024-03-08T15:05:16;22.10;99.90
19017;DHT22;9641;51.494;6.670;2024-03-08T15:07:47;21.70;99.90
19017;DHT22;9641;51.494;6.670;2024-03-08T15:10:15;22.50;99.90
19017;DHT22;9641;51.494;6.670;2024-03-08T15:12:49;22.20;99.90
19017;DHT22;9641;51.494;6.670;2024-03-08T15:15:22;22.40;99.90
19017;DHT22;9641;51.494;6.670;2024-03-08T15:17:50;21.60;99.90
19017;DHT22;9641;51.494;6.670;2024-03-08T15:20:19;21.90;99.90
19017;DHT22;9641;51.494;6.670;2024-03-08T15:22:51;21.70;99.90
19017;DHT22;9641;51.494;6.670;2024-03-08T15:25:22;21.90;99.90
19017;DHT22;9641;51.494;6.670;2024-03-08T15:27:53;21.90;99.90
19017;DHT22;9641;51.494;6.670;2024-03-08T15:30:20;19.90;99.90
19017;DHT22;9641;51.494;6.670;2024-03-08T15:32:52;18.60;99.90
19017;DHT22;9641;51.494;6.670;2024-03-08T15:35:22;17.00;99.90
19017;DHT22;9641;51.494;6.670;2024-03-08T15:37:51;16.00;99.90
19017;DHT22;9641;51.494;6.670;2024-03-08T15:40:22;15.40;99.90
19017;DHT22;9641;51.494;6.670;2024-03-08T15:42:57;15.00;99.90
19017;DHT22;9641;51.494;6.670;2024-03-08T15:45:24;14.20;99.90
19017;DHT22;9641;51.494;6.670;2024-03-08T15:47:52;13.80;99.90
19017;DHT22;9641;51.494;6.670;2024-03-08T15:50:20;13.70;99.90
19017;DHT22;9641;51.494;6.670;2024-03-08T15:52:49;13.70;99.90
19017;DHT22;9641;51.494;6.670;2024-03-08T15:55:18;13.80;99.90
19017;DHT22;9641;51.494;6.670;2024-03-08T15:57:51;13.60;99.90
19017;DHT22;9641;51.494;6.670;2024-03-08T16:00:25;13.50;99.90
19017;DHT22;9641;51.494;6.670;2024-03-08T16:03:01;13.40;99.90
19017;DHT22;9641;51.494;6.670;2024-03-08T16:05:32;13.20;99.90
19017;DHT22;9641;51.494;6.670;2024-03-08T16:08:00;13.10;99.90
19017;DHT22;9641;51.494;6.670;2024-03-08T16:10:28;13.20;99.90
19017;DHT22;9641;51.494;6.670;2024-03-08T16:12:56;13.20;99.90
19017;DHT22;9641;51.494;6.670;2024-03-08T16:15:28;13.30;99.90
19017;DHT22;9641;51.494;6.670;2024-03-08T16:17:57;13.30;99.90
19017;DHT22;9641;51.494;6.670;2024-03-08T16:20:24;13.10;99.90